createdAt,value
2018-06-11T00:00:37.426Z,80.34
2018-06-11T00:03:05.130Z,79.66
2018-06-11T00:05:32.830Z,79.40
2018-06-11T00:08:00.532Z,79.66
2018-06-11T00:10:28.238Z,79.14
2018-06-11T00:12:55.966Z,79.26
2018-06-11T00:15:23.668Z,79.53
2018-06-11T00:17:51.380Z,79.90
2018-06-11T00:20:19.058Z,79.58
2018-06-11T00:22:46.746Z,79.58
2018-06-11T00:25:14.417Z,78.95
2018-06-11T00:27:42.114Z,79.36
2018-06-11T00:30:09.815Z,79.06
2018-06-11T00:32:37.491Z,79.00
2018-06-11T00:35:05.163Z,79.74
2018-06-11T00:37:32.875Z,79.74
2018-06-11T00:40:00.541Z,79.48
2018-06-11T00:42:28.202Z,79.18
2018-06-11T00:44:55.946Z,79.61
2018-06-11T00:47:23.647Z,80.13
2018-06-11T00:49:51.315Z,80.44
2018-06-11T00:52:18.994Z,79.85
2018-06-11T00:54:46.674Z,79.85
2018-06-11T00:57:14.350Z,80.13
2018-06-11T00:59:42.081Z,79.80
2018-06-11T01:02:09.756Z,79.81
2018-06-11T01:04:37.425Z,79.72
2018-06-11T01:07:05.134Z,80.04
2018-06-11T01:09:32.931Z,79.31
2018-06-11T01:12:00.599Z,79.22
2018-06-11T01:14:28.396Z,79.27
2018-06-11T01:16:56.100Z,79.91
2018-06-11T01:19:23.847Z,80.16
2018-06-11T01:21:51.551Z,79.78
2018-06-11T01:24:19.259Z,79.27
2018-06-11T01:26:46.987Z,79.35
2018-06-11T01:29:14.666Z,79.76
2018-06-11T01:31:42.379Z,79.56
2018-06-11T01:34:10.075Z,79.95
2018-06-11T01:36:37.757Z,79.73
2018-06-11T01:39:06.175Z,79.85
2018-06-11T01:41:33.924Z,79.07
2018-06-11T01:44:01.611Z,78.99
2018-06-11T01:46:29.298Z,79.26
2018-06-11T01:48:56.965Z,78.95
2018-06-11T01:51:24.671Z,78.85
2018-06-11T01:53:52.399Z,78.67
2018-06-11T01:56:20.051Z,78.60
2018-06-11T01:58:47.748Z,78.36
2018-06-11T02:01:15.447Z,78.49
2018-06-11T02:03:43.279Z,78.60
2018-06-11T02:06:10.991Z,79.29
2018-06-11T02:08:38.718Z,78.79
2018-06-11T02:11:06.431Z,79.26
2018-06-11T02:13:34.133Z,79.62
2018-06-11T02:16:01.810Z,79.37
2018-06-11T02:18:29.467Z,79.30
2018-06-11T02:20:57.313Z,79.38
2018-06-11T02:23:25.103Z,79.38
2018-06-11T02:25:52.787Z,79.46
2018-06-11T02:28:20.453Z,79.14
2018-06-11T02:30:48.159Z,79.50
2018-06-11T02:33:15.830Z,79.39
2018-06-11T02:35:43.518Z,79.74
2018-06-11T02:38:11.333Z,79.79
2018-06-11T02:40:39.007Z,79.23
2018-06-11T02:43:06.711Z,79.16
2018-06-11T02:45:34.576Z,79.77
2018-06-11T02:48:02.251Z,79.18
2018-06-11T02:50:29.955Z,79.11
2018-06-11T02:52:57.627Z,79.25
2018-06-11T02:55:25.323Z,79.27
2018-06-11T02:57:53.034Z,79.41
2018-06-11T03:00:20.695Z,79.51
2018-06-11T03:02:48.374Z,79.30
2018-06-11T03:05:16.095Z,79.76
2018-06-11T03:07:43.849Z,79.44
2018-06-11T03:10:11.551Z,79.32
2018-06-11T03:12:39.255Z,79.37
2018-06-11T03:15:06.968Z,79.50
2018-06-11T03:17:34.698Z,79.40
2018-06-11T03:20:02.474Z,79.52
2018-06-11T03:22:30.155Z,79.51
2018-06-11T03:24:57.822Z,79.58
2018-06-11T03:27:25.531Z,79.76
2018-06-11T03:29:53.175Z,80.15
2018-06-11T03:32:20.858Z,79.80
2018-06-11T03:34:48.526Z,79.97
2018-06-11T03:37:16.217Z,79.39
2018-06-11T03:39:43.911Z,79.24
2018-06-11T03:42:11.576Z,79.21
2018-06-11T03:44:39.291Z,79.26
2018-06-11T03:47:06.988Z,79.50
2018-06-11T03:49:34.646Z,79.60
2018-06-11T03:52:02.283Z,79.75
2018-06-11T03:54:30.022Z,80.12
2018-06-11T03:56:57.703Z,80.05
2018-06-11T03:59:25.406Z,79.59
2018-06-11T04:01:53.109Z,80.21
2018-06-11T04:04:20.807Z,79.74
2018-06-11T04:06:48.530Z,79.92
2018-06-11T04:09:16.214Z,79.82
2018-06-11T04:11:43.862Z,79.20
2018-06-11T04:14:11.536Z,79.23
2018-06-11T04:16:39.216Z,78.89
2018-06-11T04:19:06.934Z,78.39
2018-06-11T04:21:34.631Z,78.22
2018-06-11T04:24:02.288Z,78.44
2018-06-11T04:26:29.958Z,78.03
2018-06-11T04:28:57.667Z,77.53
2018-06-11T04:31:25.491Z,77.22
2018-06-11T04:33:53.178Z,76.72
2018-06-11T04:36:20.870Z,76.92
2018-06-11T04:38:48.518Z,76.19
2018-06-11T04:41:16.219Z,75.31
2018-06-11T04:43:43.895Z,75.75
2018-06-11T04:46:11.618Z,74.87
2018-06-11T04:48:39.322Z,74.81
2018-06-11T04:51:07.004Z,74.65
2018-06-11T04:53:35.888Z,73.95
2018-06-11T04:56:03.577Z,73.64
2018-06-11T04:58:31.290Z,73.12
2018-06-11T05:00:59.028Z,72.57
2018-06-11T05:03:26.704Z,71.98
2018-06-11T05:05:54.392Z,72.73
2018-06-11T05:08:22.087Z,72.11
2018-06-11T05:10:49.742Z,71.80
2018-06-11T05:13:17.451Z,71.90
2018-06-11T05:15:45.135Z,71.50
2018-06-11T05:18:12.817Z,71.08
2018-06-11T05:20:40.555Z,69.70
2018-06-11T05:23:08.247Z,68.89
2018-06-11T05:25:35.991Z,68.47
2018-06-11T05:28:03.721Z,68.14
2018-06-11T05:30:31.419Z,66.83
2018-06-11T05:32:59.146Z,66.75
2018-06-11T05:35:26.837Z,65.83
2018-06-11T05:37:54.527Z,65.60
2018-06-11T05:40:22.230Z,64.22
2018-06-11T05:42:49.883Z,62.74
2018-06-11T05:45:17.589Z,62.99
2018-06-11T05:47:45.299Z,64.19
2018-06-11T05:50:12.974Z,64.81
2018-06-11T05:52:40.679Z,65.85
2018-06-11T05:55:08.331Z,66.35
2018-06-11T05:57:36.022Z,67.55
2018-06-11T06:00:03.934Z,68.07
2018-06-11T06:02:31.606Z,68.45
2018-06-11T06:04:59.307Z,68.85
2018-06-11T06:07:27.068Z,68.29
2018-06-11T06:09:54.777Z,68.93
2018-06-11T06:12:23.450Z,69.19
2018-06-11T06:14:51.232Z,68.94
2018-06-11T06:17:19.035Z,68.96
2018-06-11T06:19:46.743Z,68.36
2018-06-11T06:22:14.436Z,67.17
2018-06-11T06:24:42.111Z,67.62
2018-06-11T06:27:09.823Z,67.86
2018-06-11T06:29:37.532Z,68.94
2018-06-11T06:32:05.266Z,68.32
2018-06-11T06:34:33.007Z,69.02
2018-06-11T06:37:00.700Z,68.99
2018-06-11T06:39:28.443Z,69.72
2018-06-11T06:41:56.093Z,70.37
2018-06-11T06:44:23.838Z,70.27
2018-06-11T06:46:51.590Z,70.35
2018-06-11T06:49:19.279Z,70.59
2018-06-11T06:51:46.997Z,70.71
2018-06-11T06:54:14.680Z,69.76
2018-06-11T06:56:42.413Z,70.53
2018-06-11T06:59:10.114Z,71.01
2018-06-11T07:01:37.905Z,70.11
2018-06-11T07:04:05.624Z,70.43
2018-06-11T07:06:33.314Z,69.46
2018-06-11T07:09:01.046Z,70.28
2018-06-11T07:11:28.764Z,69.35
2018-06-11T07:13:56.435Z,69.09
2018-06-11T07:16:24.119Z,67.12
2018-06-11T07:18:51.807Z,66.86
2018-06-11T07:21:19.486Z,66.07
2018-06-11T07:23:47.203Z,65.82
2018-06-11T07:26:14.889Z,66.41
2018-06-11T07:28:42.635Z,66.75
2018-06-11T07:31:10.323Z,66.15
2018-06-11T07:33:38.027Z,65.97
2018-06-11T07:36:05.736Z,65.73
2018-06-11T07:38:33.419Z,65.27
2018-06-11T07:41:01.281Z,65.75
2018-06-11T07:43:28.995Z,64.54
2018-06-11T07:45:56.685Z,63.43
2018-06-11T07:48:24.646Z,63.83
2018-06-11T07:50:52.369Z,64.16
2018-06-11T07:53:20.068Z,63.40
2018-06-11T07:55:47.801Z,63.71
2018-06-11T07:58:15.492Z,62.84
2018-06-11T08:00:43.254Z,62.02
2018-06-11T08:03:11.017Z,62.76
2018-06-11T08:05:38.778Z,63.89
2018-06-11T08:08:06.492Z,62.54
2018-06-11T08:10:34.252Z,59.19
2018-06-11T08:13:02.021Z,59.42
2018-06-11T08:15:29.767Z,57.83
2018-06-11T08:17:57.542Z,58.80
2018-06-11T08:20:25.259Z,59.66
2018-06-11T08:22:52.989Z,56.41
2018-06-11T08:25:20.717Z,56.06
2018-06-11T08:27:48.450Z,57.19
2018-06-11T08:30:16.170Z,56.00
2018-06-11T08:32:43.931Z,56.27
2018-06-11T08:35:11.678Z,56.14
2018-06-11T08:37:39.379Z,56.46
2018-06-11T08:40:07.123Z,55.69
2018-06-11T08:42:34.814Z,53.36
2018-06-11T08:45:02.550Z,54.03
2018-06-11T08:47:30.251Z,52.71
2018-06-11T08:49:57.992Z,52.25
2018-06-11T08:52:25.698Z,51.82
2018-06-11T08:54:53.393Z,49.02
2018-06-11T08:57:21.124Z,48.19
2018-06-11T08:59:48.851Z,47.61
2018-06-11T09:02:16.747Z,46.99
2018-06-11T09:04:44.462Z,47.57
2018-06-11T09:07:12.210Z,46.42
2018-06-11T09:09:39.947Z,45.71
2018-06-11T09:12:07.645Z,45.90
2018-06-11T09:14:35.391Z,44.57
2018-06-11T09:17:03.115Z,45.72
2018-06-11T09:19:30.862Z,48.20
2018-06-11T09:21:58.595Z,47.79
2018-06-11T09:24:26.349Z,47.56
2018-06-11T09:26:55.202Z,46.61
2018-06-11T09:29:22.909Z,46.88
2018-06-11T09:31:50.658Z,46.78
2018-06-11T09:34:18.408Z,47.24
2018-06-11T09:36:46.144Z,47.27
2018-06-11T09:39:13.851Z,47.55
2018-06-11T09:41:41.579Z,47.82
2018-06-11T09:44:09.322Z,48.24
2018-06-11T09:46:37.009Z,48.54
2018-06-11T09:49:05.593Z,48.87
2018-06-11T09:51:33.299Z,48.97
2018-06-11T09:54:01.048Z,50.15
2018-06-11T09:56:28.782Z,50.02
2018-06-11T09:58:56.508Z,48.87
2018-06-11T10:01:24.206Z,48.82
2018-06-11T10:03:51.893Z,49.73
2018-06-11T10:06:19.576Z,48.67
2018-06-11T10:08:47.293Z,49.15
2018-06-11T10:11:14.977Z,49.28
2018-06-11T10:13:42.711Z,48.95
2018-06-11T10:16:10.459Z,49.63
2018-06-11T10:18:38.170Z,49.53
2018-06-11T10:21:06.179Z,49.76
2018-06-11T10:23:33.927Z,50.77
2018-06-11T10:26:01.681Z,50.16
2018-06-11T10:28:29.395Z,50.92
2018-06-11T10:30:57.914Z,50.79
2018-06-11T10:33:25.643Z,50.03
2018-06-11T10:35:53.359Z,50.64
2018-06-11T10:38:21.057Z,50.54
2018-06-11T10:40:48.805Z,50.43
2018-06-11T10:43:16.552Z,50.25
2018-06-11T10:45:44.312Z,48.93
2018-06-11T10:48:12.073Z,49.52
2018-06-11T10:50:39.827Z,49.14
2018-06-11T10:53:07.539Z,49.93
2018-06-11T10:55:35.303Z,48.84
2018-06-11T10:58:03.062Z,49.45
2018-06-11T11:00:30.820Z,50.18
2018-06-11T11:02:58.545Z,49.43
2018-06-11T11:05:26.299Z,48.71
2018-06-11T11:07:54.013Z,47.41
2018-06-11T11:10:21.750Z,47.44
2018-06-11T11:12:49.457Z,46.86
2018-06-11T11:15:17.147Z,46.16
2018-06-11T11:17:44.863Z,46.50
2018-06-11T11:20:12.565Z,46.98
2018-06-11T11:22:40.291Z,46.93
2018-06-11T11:25:08.041Z,46.97
2018-06-11T11:27:35.747Z,48.03
2018-06-11T11:30:03.950Z,44.24
2018-06-11T11:32:31.696Z,46.00
2018-06-11T11:34:59.448Z,46.09
2018-06-11T11:37:27.203Z,47.44
2018-06-11T11:39:55.023Z,46.09
2018-06-11T11:42:22.788Z,44.94
2018-06-11T11:44:50.556Z,45.19
2018-06-11T11:47:18.371Z,45.21
2018-06-11T11:49:46.147Z,46.03
2018-06-11T11:52:13.886Z,45.10
2018-06-11T11:54:41.970Z,45.59
2018-06-11T11:57:09.703Z,44.50
2018-06-11T11:59:37.447Z,45.48
2018-06-11T12:02:05.290Z,45.78
2018-06-11T12:04:33.108Z,45.42
2018-06-11T12:07:00.812Z,43.98
2018-06-11T12:09:28.611Z,44.28
2018-06-11T12:11:56.375Z,45.43
2018-06-11T12:14:24.111Z,45.54
2018-06-11T12:16:51.819Z,46.02
2018-06-11T12:19:19.571Z,45.39
2018-06-11T12:21:47.296Z,45.20
2018-06-11T12:24:15.051Z,45.92
2018-06-11T12:26:42.910Z,44.45
2018-06-11T12:29:10.688Z,44.98
2018-06-11T12:31:38.437Z,46.20
2018-06-11T12:34:06.191Z,44.12
2018-06-11T12:36:34.019Z,43.93
2018-06-11T12:39:01.783Z,43.51
2018-06-11T12:41:29.590Z,43.70
2018-06-11T12:43:57.338Z,41.56
2018-06-11T12:46:25.071Z,41.79
2018-06-11T12:48:52.796Z,39.95
2018-06-11T12:51:20.533Z,40.78
2018-06-11T12:53:48.287Z,41.22
2018-06-11T12:56:16.084Z,41.51
2018-06-11T12:58:43.780Z,39.82
2018-06-11T13:01:11.531Z,40.83
2018-06-11T13:03:39.228Z,43.57
2018-06-11T13:06:07.044Z,44.80
2018-06-11T13:08:34.785Z,44.16
2018-06-11T13:11:02.531Z,42.81
2018-06-11T13:13:30.313Z,43.89
2018-06-11T13:15:58.091Z,44.85
2018-06-11T13:18:25.802Z,44.78
2018-06-11T13:20:53.572Z,45.75
2018-06-11T13:23:21.313Z,46.50
2018-06-11T13:25:49.168Z,46.39
2018-06-11T13:28:16.911Z,46.50
2018-06-11T13:30:44.656Z,46.75
2018-06-11T13:33:12.411Z,46.30
2018-06-11T13:35:40.142Z,46.94
2018-06-11T13:38:07.842Z,47.32
2018-06-11T13:40:35.591Z,46.89
2018-06-11T13:43:03.386Z,47.23
2018-06-11T13:45:31.185Z,48.23
2018-06-11T13:47:58.963Z,48.52
2018-06-11T13:50:26.704Z,49.34
2018-06-11T13:52:54.483Z,49.19
2018-06-11T13:55:22.243Z,50.65
2018-06-11T13:57:50.047Z,51.23
2018-06-11T14:00:17.818Z,50.14
2018-06-11T14:02:45.639Z,51.18
2018-06-11T14:05:13.395Z,51.83
2018-06-11T14:07:41.217Z,49.97
2018-06-11T14:10:08.972Z,48.15
2018-06-11T14:12:36.731Z,48.01
2018-06-11T14:15:04.556Z,47.90
2018-06-11T14:17:32.266Z,46.28
2018-06-11T14:19:59.983Z,46.42
2018-06-11T14:22:27.698Z,47.05
2018-06-11T14:24:56.316Z,47.11
2018-06-11T14:27:24.039Z,47.92
2018-06-11T14:29:51.776Z,47.13
2018-06-11T14:32:19.526Z,45.56
2018-06-11T14:34:47.263Z,45.92
2018-06-11T14:37:15.002Z,44.77
2018-06-11T14:39:42.769Z,45.02
2018-06-11T14:42:10.800Z,44.07
2018-06-11T14:44:38.525Z,44.75
2018-06-11T14:47:06.224Z,45.77
2018-06-11T14:49:33.971Z,45.48
2018-06-11T14:52:01.701Z,45.25
2018-06-11T14:54:29.418Z,45.03
2018-06-11T14:56:57.164Z,45.32
2018-06-11T14:59:24.913Z,45.83
2018-06-11T15:01:52.652Z,45.79
2018-06-11T15:04:20.422Z,44.83
2018-06-11T15:06:48.171Z,44.68
2018-06-11T15:09:15.880Z,45.94
2018-06-11T15:11:43.595Z,45.60
2018-06-11T15:14:11.357Z,46.39
2018-06-11T15:16:39.070Z,46.68
2018-06-11T15:19:06.842Z,46.65
2018-06-11T15:21:34.650Z,47.09
2018-06-11T15:24:02.364Z,48.24
2018-06-11T15:26:30.065Z,49.03
2018-06-11T15:28:57.849Z,49.10
2018-06-11T15:31:25.533Z,49.28
2018-06-11T15:33:53.286Z,51.42
2018-06-11T15:36:21.006Z,52.23
2018-06-11T15:38:48.747Z,52.70
2018-06-11T15:41:16.440Z,53.30
2018-06-11T15:43:44.222Z,54.22
2018-06-11T15:46:11.962Z,53.68
2018-06-11T15:48:39.646Z,56.12
2018-06-11T15:51:07.385Z,55.95
2018-06-11T15:53:35.118Z,56.23
2018-06-11T15:56:02.859Z,55.78
2018-06-11T15:58:30.598Z,56.67
2018-06-11T16:00:58.307Z,57.84
2018-06-11T16:03:26.027Z,58.94
2018-06-11T16:05:53.809Z,59.63
2018-06-11T16:08:21.543Z,60.78
2018-06-11T16:10:49.320Z,61.48
2018-06-11T16:13:17.047Z,63.45
2018-06-11T16:15:44.756Z,66.74
2018-06-11T16:18:12.479Z,68.42
2018-06-11T16:20:40.212Z,69.84
2018-06-11T16:23:07.934Z,71.08
2018-06-11T16:25:35.670Z,70.57
2018-06-11T16:28:03.454Z,70.92
2018-06-11T16:30:31.134Z,72.52
2018-06-11T16:32:58.898Z,72.36
2018-06-11T16:35:26.635Z,72.76
2018-06-11T16:37:54.357Z,70.68
2018-06-11T16:40:22.729Z,71.21
2018-06-11T16:42:50.414Z,70.73
2018-06-11T16:45:18.164Z,69.85
2018-06-11T16:47:46.823Z,70.37
2018-06-11T16:50:15.479Z,70.59
2018-06-11T16:52:43.480Z,71.34
2018-06-11T16:55:11.234Z,70.91
2018-06-11T16:57:38.957Z,71.49
2018-06-11T17:00:07.019Z,69.75
2018-06-11T17:02:34.759Z,69.94
2018-06-11T17:05:05.716Z,70.08
2018-06-11T17:07:34.119Z,71.02
2018-06-11T17:10:01.832Z,70.34
2018-06-11T17:12:30.675Z,69.70
2018-06-11T17:14:58.417Z,69.33
2018-06-11T17:17:26.095Z,69.60
2018-06-11T17:19:53.800Z,70.17
2018-06-11T17:22:21.535Z,68.61
2018-06-11T17:24:49.534Z,68.14
2018-06-11T17:27:17.271Z,67.09
2018-06-11T17:29:45.016Z,68.10
2018-06-11T17:32:12.719Z,67.65
2018-06-11T17:34:40.471Z,67.85
2018-06-11T17:37:08.188Z,68.23
2018-06-11T17:39:35.904Z,67.50
2018-06-11T17:42:03.658Z,68.00
2018-06-11T17:44:31.421Z,67.80
2018-06-11T17:46:59.161Z,67.85
2018-06-11T17:49:26.922Z,67.46
2018-06-11T17:51:54.682Z,68.07
2018-06-11T17:54:22.523Z,69.05
2018-06-11T17:56:50.176Z,67.77
2018-06-11T17:59:17.952Z,68.82
2018-06-11T18:01:45.791Z,69.31
2018-06-11T18:04:13.556Z,69.43
2018-06-11T18:06:41.281Z,69.28
2018-06-11T18:09:09.208Z,69.01
2018-06-11T18:11:36.989Z,69.41
2018-06-11T18:14:04.716Z,69.13
2018-06-11T18:16:32.433Z,69.92
2018-06-11T18:19:00.177Z,69.70
2018-06-11T18:21:27.919Z,69.84
2018-06-11T18:23:55.781Z,69.22
2018-06-11T18:26:23.591Z,69.85
2018-06-11T18:28:51.305Z,70.40
2018-06-11T18:31:19.108Z,70.33
2018-06-11T18:33:46.827Z,70.11
2018-06-11T18:36:14.587Z,70.23
2018-06-11T18:38:42.419Z,70.34
2018-06-11T18:41:10.145Z,70.54
2018-06-11T18:43:37.894Z,70.62
2018-06-11T18:46:05.695Z,70.30
2018-06-11T18:48:33.438Z,70.43
2018-06-11T18:51:01.183Z,70.85
2018-06-11T18:53:28.946Z,71.99
2018-06-11T18:55:56.679Z,71.49
2018-06-11T18:58:24.405Z,71.38
2018-06-11T19:00:52.156Z,72.20
2018-06-11T19:03:19.903Z,71.69
2018-06-11T19:05:47.668Z,72.31
2018-06-11T19:08:15.436Z,72.08
2018-06-11T19:10:43.180Z,72.02
2018-06-11T19:13:10.927Z,72.08
2018-06-11T19:15:38.738Z,71.47
2018-06-11T19:18:06.587Z,72.28
2018-06-11T19:20:34.423Z,72.23
2018-06-11T19:23:02.151Z,72.16
2018-06-11T19:25:29.883Z,71.92
2018-06-11T19:27:57.620Z,73.00
2018-06-11T19:30:25.352Z,72.69
2018-06-11T19:32:53.163Z,73.21
2018-06-11T19:35:21.141Z,72.66
2018-06-11T19:37:48.853Z,73.32
2018-06-11T19:40:16.579Z,73.24
2018-06-11T19:42:44.347Z,73.65
2018-06-11T19:45:12.217Z,73.67
2018-06-11T19:47:39.999Z,73.79
2018-06-11T19:50:07.844Z,73.64
2018-06-11T19:52:35.547Z,74.12
2018-06-11T19:55:03.318Z,74.09
2018-06-11T19:57:31.006Z,74.15
2018-06-11T19:59:58.817Z,74.59
2018-06-11T20:02:26.479Z,74.64
2018-06-11T20:04:54.221Z,74.02
2018-06-11T20:07:21.919Z,74.26
2018-06-11T20:09:49.661Z,74.70
2018-06-11T20:12:17.364Z,75.00
2018-06-11T20:14:45.135Z,75.52
2018-06-11T20:17:12.904Z,76.23
2018-06-11T20:19:40.625Z,76.60
2018-06-11T20:22:08.334Z,77.11
2018-06-11T20:24:36.058Z,76.84
2018-06-11T20:27:03.808Z,76.59
2018-06-11T20:29:31.584Z,77.05
2018-06-11T20:31:59.342Z,76.78
2018-06-11T20:34:27.133Z,76.78
2018-06-11T20:36:54.932Z,77.58
2018-06-11T20:39:22.673Z,77.47
2018-06-11T20:41:50.388Z,77.98
2018-06-11T20:44:18.166Z,77.92
2018-06-11T20:46:45.857Z,77.59
2018-06-11T20:49:13.598Z,77.34
2018-06-11T20:51:41.409Z,77.53
2018-06-11T20:54:09.142Z,77.11
2018-06-11T20:56:36.930Z,77.04
2018-06-11T20:59:04.652Z,76.10
2018-06-11T21:01:32.356Z,76.88
2018-06-11T21:04:00.166Z,77.58
2018-06-11T21:06:27.877Z,77.92
2018-06-11T21:08:55.543Z,79.18
2018-06-11T21:11:23.250Z,79.21
2018-06-11T21:13:50.958Z,79.53
2018-06-11T21:16:18.654Z,79.58
2018-06-11T21:18:46.347Z,78.14
2018-06-11T21:21:14.099Z,78.64
2018-06-11T21:23:41.775Z,78.89
2018-06-11T21:26:09.507Z,79.23
2018-06-11T21:28:37.227Z,79.35
2018-06-11T21:31:05.027Z,78.90
2018-06-11T21:33:32.782Z,78.78
2018-06-11T21:36:00.463Z,78.35
2018-06-11T21:38:28.205Z,78.77
2018-06-11T21:40:55.972Z,78.65
2018-06-11T21:43:23.686Z,78.53
2018-06-11T21:45:51.422Z,78.87
2018-06-11T21:48:19.102Z,78.72
2018-06-11T21:50:46.837Z,78.75
2018-06-11T21:53:14.499Z,79.04
2018-06-11T21:55:42.199Z,80.06
2018-06-11T21:58:09.868Z,80.12
2018-06-11T22:00:37.634Z,80.00
2018-06-11T22:03:05.398Z,79.86
2018-06-11T22:05:33.107Z,78.94
2018-06-11T22:08:01.145Z,79.43
2018-06-11T22:10:28.945Z,79.52
2018-06-11T22:12:56.630Z,79.96
2018-06-11T22:15:24.329Z,79.76
2018-06-11T22:17:52.040Z,79.79
2018-06-11T22:20:19.712Z,80.42
2018-06-11T22:22:47.424Z,81.07
2018-06-11T22:25:15.163Z,81.41
2018-06-11T22:27:42.885Z,80.65
2018-06-11T22:30:10.599Z,79.87
2018-06-11T22:32:38.343Z,79.36
2018-06-11T22:35:06.070Z,79.86
2018-06-11T22:37:33.765Z,80.06
2018-06-11T22:40:01.480Z,80.10
2018-06-11T22:42:29.177Z,80.27
2018-06-11T22:44:56.853Z,80.35
2018-06-11T22:47:24.539Z,81.18
2018-06-11T22:49:52.228Z,81.32
2018-06-11T22:52:19.899Z,80.54
2018-06-11T22:54:47.588Z,80.59
2018-06-11T22:57:15.308Z,80.15
2018-06-11T22:59:42.961Z,80.23
2018-06-11T23:02:10.712Z,80.47
2018-06-11T23:04:38.417Z,80.80
2018-06-11T23:07:06.230Z,80.99
2018-06-11T23:09:33.900Z,80.92
2018-06-11T23:12:01.623Z,80.66
2018-06-11T23:14:29.351Z,81.26
2018-06-11T23:16:57.051Z,80.94
2018-06-11T23:19:24.751Z,81.01
2018-06-11T23:21:52.452Z,81.37
2018-06-11T23:24:20.210Z,81.28
2018-06-11T23:26:47.940Z,80.97
2018-06-11T23:29:15.620Z,81.08
2018-06-11T23:31:43.326Z,80.59
2018-06-11T23:34:11.029Z,80.56
2018-06-11T23:36:38.940Z,80.65
2018-06-11T23:39:06.842Z,81.13
2018-06-11T23:41:34.773Z,80.67
2018-06-11T23:44:02.475Z,80.33
2018-06-11T23:46:30.150Z,80.90
2018-06-11T23:48:57.862Z,80.71
2018-06-11T23:51:25.563Z,80.82
2018-06-11T23:53:53.305Z,81.13
2018-06-11T23:56:22.097Z,80.77
2018-06-11T23:58:49.812Z,80.68
